ADDS METAR Data INFO
IDs: Format: Raw Decoded Include TAF

Data at: 2319 UTC 15 Jul 2018

KMFE 152253Z 14018G25KT 8SM FEW044 35/24 A2993 RMK AO2 PK WND 14026/2236 SLP131 T03500239